Time;durP1;ratioP1;P1;durP2;ratioP2;P2;SDS_P1;SDS_P2;PMS_P1;PMS_P2;Temp;Humidity;BMP_temperature;BMP_pressure;BME280_temperature;BME280_humidity;BME280_pressure;Samples;Min_cycle;Max_cycle;Signal;HPM_P1;HPM_P2
2022/02/14 00:01:07;;;;;;;7.43;4.60;;;4.70;1.00;;;;;;7365067;19;20023;-62
2022/02/14 00:03:36;;;;;;;8.90;4.97;;;4.50;1.00;;;;;;7368081;19;20010;-60
2022/02/14 00:06:06;;;;;;;7.47;4.55;;;4.40;1.00;;;;;;7363506;19;20010;-60
2022/02/14 00:08:36;;;;;;;9.00;4.93;;;4.30;1.00;;;;;;7386746;19;20475;-60
2022/02/14 00:11:09;;;;;;;10.43;5.05;;;4.20;1.00;;;;;;7366962;19;20017;-60
2022/02/14 00:13:40;;;;;;;8.45;5.30;;;4.10;1.00;;;;;;7368532;19;20010;-60
2022/02/14 00:16:10;;;;;;;10.15;5.35;;;4.10;1.00;;;;;;7362980;19;20014;-60
2022/02/14 00:18:40;;;;;;;9.05;4.90;;;4.10;1.00;;;;;;7367827;19;20014;-60
2022/02/14 00:21:10;;;;;;;8.18;4.95;;;4.10;1.00;;;;;;7365671;19;20014;-60
2022/02/14 00:23:40;;;;;;;6.97;4.47;;;4.10;1.00;;;;;;7381962;19;20010;-60
2022/02/14 00:26:12;;;;;;;8.60;4.72;;;4.10;1.00;;;;;;7386277;19;20089;-59
2022/02/14 00:28:44;;;;;;;10.15;5.68;;;4.10;1.00;;;;;;7366195;19;20019;-60
2022/02/14 00:31:17;;;;;;;10.30;4.97;;;4.10;1.00;;;;;;7364506;19;20007;-59
2022/02/14 00:33:47;;;;;;;8.73;4.93;;;4.10;1.00;;;;;;7366449;19;20015;-60
2022/02/14 00:36:17;;;;;;;10.18;5.55;;;4.00;1.00;;;;;;7365740;19;20018;-59
2022/02/14 00:38:47;;;;;;;7.82;4.82;;;4.10;1.00;;;;;;7364545;19;20023;-60
2022/02/14 00:41:19;;;;;;;10.95;5.82;;;4.10;1.00;;;;;;7388145;19;20034;-59
2022/02/14 00:43:52;;;;;;;12.10;5.00;;;4.20;1.00;;;;;;7366333;19;20015;-60
2022/02/14 00:46:23;;;;;;;9.13;5.50;;;4.10;1.00;;;;;;7364687;19;20070;-60
2022/02/14 00:48:52;;;;;;;11.20;5.78;;;4.10;1.00;;;;;;7365350;19;20074;-60
2022/02/14 00:51:26;;;;;;;8.07;5.20;;;4.20;1.00;;;;;;7363744;19;20085;-60
2022/02/14 00:53:57;;;;;;;10.32;5.05;;;4.30;1.00;;;;;;7362528;19;20011;-60
2022/02/14 00:56:30;;;;;;;7.60;4.20;;;4.50;1.00;;;;;;7388617;19;20360;-60
2022/02/14 00:58:59;;;;;;;8.40;4.38;;;4.50;1.00;;;;;;7364992;19;20018;-60
2022/02/14 01:01:30;;;;;;;11.15;5.00;;;4.50;1.00;;;;;;7364270;19;20014;-59
2022/02/14 01:04:00;;;;;;;6.60;4.03;;;4.60;1.00;;;;;;7364148;19;20031;-60
2022/02/14 01:06:31;;;;;;;5.30;3.65;;;4.70;1.00;;;;;;7366474;19;20035;-60
2022/02/14 01:09:01;;;;;;;6.90;3.97;;;4.70;1.00;;;;;;7364939;19;20004;-60
2022/02/14 01:11:34;;;;;;;8.00;4.20;;;4.90;1.00;;;;;;7386681;19;20094;-59
2022/02/14 01:14:04;;;;;;;6.55;4.03;;;5.00;1.00;;;;;;7365020;19;20014;-59
2022/02/14 01:16:34;;;;;;;8.77;3.40;;;5.00;1.00;;;;;;7364071;19;20018;-59
2022/02/14 01:19:04;;;;;;;7.03;4.15;;;5.00;1.00;;;;;;7366116;19;20048;-59
2022/02/14 01:21:34;;;;;;;6.60;3.78;;;5.00;1.00;;;;;;7366314;19;20011;-60
2022/02/14 01:24:04;;;;;;;6.28;3.58;;;5.00;1.00;;;;;;7361799;19;20018;-61
2022/02/14 01:26:37;;;;;;;8.25;3.58;;;5.10;1.00;;;;;;7387337;19;20489;-60
2022/02/14 01:29:06;;;;;;;7.43;3.35;;;5.10;1.00;;;;;;7362678;19;20015;-60
2022/02/14 01:31:37;;;;;;;7.50;3.70;;;5.20;1.00;;;;;;7360145;19;20483;-60
2022/02/14 01:34:07;;;;;;;5.32;3.53;;;5.20;1.00;;;;;;7362442;19;20014;-60
2022/02/14 01:36:36;;;;;;;9.63;3.72;;;5.20;1.00;;;;;;7366417;19;20006;-59
2022/02/14 01:39:08;;;;;;;8.38;3.78;;;5.30;1.00;;;;;;7364344;19;20018;-59
2022/02/14 01:41:40;;;;;;;5.13;3.50;;;5.30;1.00;;;;;;7384830;19;20120;-60
2022/02/14 01:44:12;;;;;;;7.72;3.72;;;5.30;1.00;;;;;;7363508;19;20078;-60
2022/02/14 01:46:42;;;;;;;8.93;3.58;;;5.30;1.00;;;;;;7364406;19;20006;-59
2022/02/14 01:49:13;;;;;;;6.32;4.00;;;5.30;1.00;;;;;;7364371;19;20466;-61
2022/02/14 01:51:43;;;;;;;6.15;3.42;;;5.50;1.00;;;;;;7364643;19;20373;-60
2022/02/14 01:54:13;;;;;;;6.50;3.83;;;5.40;1.00;;;;;;7360247;19;20081;-60
2022/02/14 01:56:46;;;;;;;5.75;3.58;;;5.40;1.00;;;;;;7366971;19;20065;-60
2022/02/14 01:59:15;;;;;;;7.22;4.00;;;5.40;1.00;;;;;;7383590;19;20006;-60
2022/02/14 02:01:45;;;;;;;7.55;3.80;;;5.30;1.00;;;;;;7361638;19;20035;-60
2022/02/14 02:04:15;;;;;;;6.65;3.55;;;5.30;1.00;;;;;;7361279;19;20016;-60
2022/02/14 02:06:45;;;;;;;6.38;4.15;;;5.30;1.00;;;;;;7367241;19;20097;-60
2022/02/14 02:09:15;;;;;;;7.28;4.15;;;5.40;1.00;;;;;;7363361;19;20454;-59
2022/02/14 02:14:30;;;;;;;;;;;5.40;1.00;;;;;;7384480;19;20034;-59
2022/02/14 02:17:00;;;;;;;5.25;3.67;;;5.30;1.00;;;;;;7362880;19;19975;-60
2022/02/14 02:19:30;;;;;;;6.20;3.45;;;5.30;1.00;;;;;;7364246;19;20070;-60
2022/02/14 02:22:00;;;;;;;5.85;3.38;;;5.40;1.00;;;;;;7363039;19;20007;-60
2022/02/14 02:24:29;;;;;;;6.35;3.53;;;5.40;1.00;;;;;;7353571;19;20016;-60
2022/02/14 02:27:04;;;;;;;5.80;3.20;;;5.50;1.00;;;;;;7361110;19;20480;-60
2022/02/14 02:29:39;;;;;;;4.38;3.30;;;5.50;1.00;;;;;;7382859;19;20049;-60
2022/02/14 02:32:11;;;;;;;5.00;3.50;;;5.40;1.00;;;;;;7358613;19;20017;-60
2022/02/14 02:34:43;;;;;;;5.80;3.17;;;5.40;1.00;;;;;;7357336;19;20309;-60
2022/02/14 02:37:15;;;;;;;5.78;3.33;;;5.40;1.00;;;;;;7363605;19;20021;-60
2022/02/14 02:39:45;;;;;;;5.35;3.28;;;5.40;1.00;;;;;;7360521;19;20017;-59
2022/02/14 02:42:19;;;;;;;5.22;2.65;;;5.50;1.00;;;;;;7362150;19;20011;-59
2022/02/14 02:44:50;;;;;;;7.60;3.30;;;5.60;1.00;;;;;;7357150;19;20018;-59
2022/02/14 02:47:22;;;;;;;9.05;3.05;;;5.60;1.00;;;;;;7381035;19;20017;-60
2022/02/14 02:49:53;;;;;;;6.97;3.63;;;5.70;1.00;;;;;;7359813;19;20009;-60
2022/02/14 02:52:23;;;;;;;6.78;3.58;;;5.80;1.00;;;;;;7362777;19;20692;-60
2022/02/14 02:54:55;;;;;;;5.95;3.63;;;5.60;1.00;;;;;;7355689;19;20090;-60
2022/02/14 02:57:30;;;;;;;7.93;2.90;;;5.70;1.00;;;;;;7362412;19;20010;-60
2022/02/14 03:00:01;;;;;;;5.65;3.13;;;5.70;1.00;;;;;;7363396;19;20070;-60
2022/02/14 03:02:30;;;;;;;4.20;2.70;;;5.70;1.00;;;;;;7378377;19;20348;-61
2022/02/14 03:05:02;;;;;;;5.40;3.00;;;5.70;1.00;;;;;;7355523;19;20077;-62
2022/02/14 03:07:34;;;;;;;4.85;2.88;;;5.70;1.00;;;;;;7361895;19;20522;-60
2022/02/14 03:10:05;;;;;;;6.28;3.80;;;5.70;1.00;;;;;;7358868;19;20074;-58
2022/02/14 03:12:37;;;;;;;6.97;3.38;;;5.50;1.00;;;;;;7358443;19;20023;-59
2022/02/14 03:15:09;;;;;;;6.03;3.78;;;5.50;1.00;;;;;;7357576;19;20018;-59
2022/02/14 03:17:39;;;;;;;6.65;3.72;;;5.50;1.00;;;;;;7381703;19;20085;-60
2022/02/14 03:20:10;;;;;;;8.70;4.13;;;5.50;1.00;;;;;;7220595;19;2741724;-60
2022/02/14 03:22:40;;;;;;;5.35;3.58;;;5.50;1.00;;;;;;7361572;19;20817;-60
2022/02/14 03:25:13;;;;;;;5.20;3.53;;;5.40;1.00;;;;;;7356531;19;20014;-59
2022/02/14 03:27:45;;;;;;;6.53;3.42;;;5.30;1.00;;;;;;7363489;19;20007;-60
2022/02/14 03:30:16;;;;;;;5.50;3.53;;;5.20;1.00;;;;;;7363472;19;20070;-59
2022/02/14 03:32:46;;;;;;;4.88;2.90;;;5.10;1.00;;;;;;7360373;19;20028;-60
2022/02/14 03:35:16;;;;;;;4.95;3.40;;;5.10;1.00;;;;;;7379734;19;20011;-59
2022/02/14 03:37:46;;;;;;;4.38;3.35;;;5.10;1.00;;;;;;7363910;19;20027;-59
2022/02/14 03:40:16;;;;;;;5.97;3.45;;;5.10;1.00;;;;;;7362329;19;20017;-60
2022/02/14 03:42:49;;;;;;;6.30;3.80;;;5.00;1.00;;;;;;7360792;19;20545;-59
2022/02/14 03:45:19;;;;;;;4.85;3.05;;;5.00;1.00;;;;;;7359995;19;20007;-59
2022/02/14 03:47:49;;;;;;;6.28;3.47;;;5.00;1.00;;;;;;7360514;19;20022;-59
2022/02/14 03:50:19;;;;;;;7.82;3.35;;;5.00;1.00;;;;;;7383159;19;20028;-59
2022/02/14 03:52:49;;;;;;;9.00;3.67;;;5.10;1.00;;;;;;7362041;19;20086;-59
2022/02/14 03:55:20;;;;;;;6.28;3.35;;;5.20;1.00;;;;;;7359183;19;20097;-60
2022/02/14 03:57:53;;;;;;;5.80;3.38;;;5.20;1.00;;;;;;7361686;19;20084;-59
2022/02/14 04:00:25;;;;;;;6.85;3.50;;;5.20;1.00;;;;;;7363163;19;20024;-59
2022/02/14 04:02:56;;;;;;;5.88;3.30;;;5.20;1.00;;;;;;7357820;19;20361;-59
2022/02/14 04:05:26;;;;;;;3.65;2.35;;;5.30;1.00;;;;;;7378437;19;20022;-59
2022/02/14 04:07:58;;;;;;;7.15;2.80;;;5.30;1.00;;;;;;7361027;19;20033;-59
2022/02/14 04:10:30;;;;;;;4.88;2.60;;;5.20;1.00;;;;;;7361494;19;20338;-59
2022/02/14 04:13:02;;;;;;;6.55;2.50;;;5.20;1.00;;;;;;7358687;19;20086;-59
2022/02/14 04:15:32;;;;;;;5.25;2.88;;;5.40;1.00;;;;;;7358944;19;20147;-59
2022/02/14 04:18:02;;;;;;;5.25;2.70;;;5.30;1.00;;;;;;7360855;19;20562;-59
2022/02/14 04:20:32;;;;;;;3.95;2.35;;;5.40;1.00;;;;;;7381538;19;20018;-59
2022/02/14 04:23:02;;;;;;;4.47;2.35;;;5.30;1.00;;;;;;7361974;19;20085;-59
2022/02/14 04:25:32;;;;;;;4.43;2.22;;;5.30;1.00;;;;;;7364703;19;20086;-59
2022/02/14 04:28:06;;;;;;;7.10;2.67;;;5.40;1.00;;;;;;7367859;19;20474;-60
2022/02/14 04:30:36;;;;;;;4.00;2.53;;;5.50;1.00;;;;;;7369003;19;20017;-59
2022/02/14 04:33:06;;;;;;;3.95;2.42;;;5.60;1.00;;;;;;7363723;19;20053;-59
2022/02/14 04:35:36;;;;;;;6.15;2.25;;;5.50;1.00;;;;;;7385359;19;20094;-59
2022/02/14 04:38:06;;;;;;;5.38;2.17;;;5.60;1.00;;;;;;7368971;19;20017;-60
2022/02/14 04:40:39;;;;;;;4.45;2.50;;;5.60;1.00;;;;;;7367923;19;20022;-59
2022/02/14 04:43:12;;;;;;;3.13;2.50;;;5.60;1.00;;;;;;7364172;19;20831;-59
2022/02/14 04:45:42;;;;;;;3.85;2.40;;;5.50;1.00;;;;;;7365699;19;20002;-59
2022/02/14 04:48:11;;;;;;;4.93;2.53;;;5.40;1.00;;;;;;7365427;19;20078;-59
2022/02/14 04:50:41;;;;;;;3.63;2.45;;;5.30;1.00;;;;;;7370342;19;20015;-59
2022/02/14 04:53:11;;;;;;;6.30;2.58;;;5.30;1.00;;;;;;7387800;19;20383;-59
2022/02/14 04:55:41;;;;;;;5.85;2.50;;;5.40;1.00;;;;;;7361977;19;20082;-59
2022/02/14 04:58:13;;;;;;;4.05;2.90;;;5.30;1.00;;;;;;7366384;19;20032;-59
2022/02/14 05:00:43;;;;;;;7.75;3.10;;;5.20;1.00;;;;;;7368183;19;20060;-59
2022/02/14 05:03:13;;;;;;;5.43;2.60;;;5.30;1.00;;;;;;7363657;19;20054;-59
2022/02/14 05:05:44;;;;;;;4.95;2.83;;;5.20;1.00;;;;;;7362850;19;20426;-60
2022/02/14 05:08:14;;;;;;;5.18;2.47;;;5.20;1.00;;;;;;7388396;19;20013;-60
2022/02/14 05:10:44;;;;;;;9.48;2.88;;;5.20;1.00;;;;;;7365702;19;20006;-61
2022/02/14 05:13:16;;;;;;;4.00;2.65;;;5.20;1.00;;;;;;7364011;19;20012;-59
2022/02/14 05:15:46;;;;;;;4.05;2.80;;;5.20;1.00;;;;;;7363907;19;20015;-59
2022/02/14 05:18:16;;;;;;;3.85;2.60;;;5.20;1.00;;;;;;7366650;19;20017;-59
2022/02/14 05:20:46;;;;;;;5.18;2.65;;;5.20;1.00;;;;;;7365337;19;20010;-59
2022/02/14 05:23:16;;;;;;;4.80;2.30;;;5.20;1.00;;;;;;7387294;19;20006;-59
2022/02/14 05:25:46;;;;;;;6.82;2.47;;;5.20;1.00;;;;;;7360112;19;20010;-60
2022/02/14 05:28:18;;;;;;;3.38;2.30;;;5.10;1.00;;;;;;7366397;19;20032;-59
2022/02/14 05:30:48;;;;;;;4.90;2.28;;;5.20;1.00;;;;;;7368368;19;20466;-59
2022/02/14 05:33:18;;;;;;;4.75;2.83;;;5.10;1.00;;;;;;7364199;19;20050;-59
2022/02/14 05:35:48;;;;;;;3.92;2.17;;;5.00;1.00;;;;;;7362043;19;20536;-60
2022/02/14 05:38:18;;;;;;;4.05;2.40;;;5.00;1.00;;;;;;7388817;19;20317;-59
2022/02/14 05:40:48;;;;;;;4.03;2.42;;;4.90;1.00;;;;;;7364987;19;20017;-59
2022/02/14 05:43:20;;;;;;;7.35;2.72;;;4.90;1.00;;;;;;7364238;19;20074;-59
2022/02/14 05:45:50;;;;;;;3.72;2.30;;;4.80;1.00;;;;;;7363162;19;20451;-59
2022/02/14 05:48:26;;;;;;;6.82;3.20;;;4.80;1.00;;;;;;7364815;19;20010;-59
2022/02/14 05:50:56;;;;;;;6.00;2.92;;;4.80;1.00;;;;;;7363414;19;20018;-60
2022/02/14 05:53:26;;;;;;;3.83;2.20;;;4.90;1.00;;;;;;7387286;19;20018;-59
2022/02/14 05:55:56;;;;;;;6.15;2.30;;;4.80;1.00;;;;;;7360129;19;20003;-59
2022/02/14 05:58:28;;;;;;;8.13;2.80;;;4.90;1.00;;;;;;7364555;19;20014;-59
2022/02/14 06:00:58;;;;;;;5.75;2.75;;;5.00;1.00;;;;;;7365319;19;20027;-60
2022/02/14 06:03:28;;;;;;;7.38;2.78;;;4.90;1.00;;;;;;7365746;19;20025;-58
2022/02/14 06:05:58;;;;;;;6.75;2.50;;;5.00;1.00;;;;;;7364781;19;20021;-58
2022/02/14 06:08:28;;;;;;;5.90;2.88;;;4.90;1.00;;;;;;7387456;19;20597;-59
2022/02/14 06:10:58;;;;;;;7.65;2.60;;;5.00;1.00;;;;;;7361918;19;20017;-59
2022/02/14 06:13:30;;;;;;;4.30;2.28;;;5.00;1.00;;;;;;7365004;19;20070;-58
2022/02/14 06:16:00;;;;;;;8.05;2.83;;;5.00;1.00;;;;;;7363140;19;20348;-59
2022/02/14 06:18:30;;;;;;;7.32;2.92;;;5.10;1.00;;;;;;7364551;19;20007;-58
2022/02/14 06:21:00;;;;;;;7.13;2.75;;;5.10;1.00;;;;;;7361392;19;20118;-59
2022/02/14 06:23:30;;;;;;;5.80;3.00;;;5.10;1.00;;;;;;7386514;19;20018;-59
2022/02/14 06:26:01;;;;;;;7.43;2.30;;;5.20;1.00;;;;;;7357554;19;20006;-59
2022/02/14 06:28:38;;;;;;;9.27;2.95;;;5.20;1.00;;;;;;7362941;19;20006;-59
2022/02/14 06:31:09;;;;;;;13.80;3.20;;;5.10;1.00;;;;;;7361293;19;20014;-58
2022/02/14 06:33:44;;;;;;;8.50;3.55;;;5.20;1.00;;;;;;7363442;19;20018;-59
2022/02/14 06:36:14;;;;;;;7.72;3.30;;;5.20;1.00;;;;;;7358774;19;20085;-59
2022/02/14 06:38:44;;;;;;;8.50;3.38;;;5.20;1.00;;;;;;7362784;19;20082;-59
2022/02/14 06:41:14;;;;;;;7.32;3.47;;;5.20;1.00;;;;;;7381155;19;20053;-59
2022/02/14 06:43:47;;;;;;;9.27;3.38;;;5.20;1.00;;;;;;7362393;19;20079;-59
2022/02/14 06:46:17;;;;;;;7.03;3.25;;;5.10;1.00;;;;;;7359146;19;20010;-59
2022/02/14 06:48:47;;;;;;;8.65;3.22;;;5.10;1.00;;;;;;7363169;19;20014;-59
2022/02/14 06:51:18;;;;;;;6.78;3.55;;;5.10;1.00;;;;;;7359856;19;20013;-59
2022/02/14 06:53:49;;;;;;;9.68;2.95;;;5.00;1.00;;;;;;7365217;19;20018;-59
2022/02/14 06:56:19;;;;;;;8.02;3.20;;;5.00;1.00;;;;;;7379667;19;20102;-58
2022/02/14 06:58:51;;;;;;;8.95;3.60;;;4.90;1.00;;;;;;7361099;19;20359;-58
2022/02/14 07:01:21;;;;;;;10.35;3.70;;;5.00;1.00;;;;;;7361887;19;20015;-59
2022/02/14 07:03:51;;;;;;;8.30;3.33;;;5.00;1.00;;;;;;7363070;19;20254;-59
2022/02/14 07:06:21;;;;;;;10.55;3.50;;;5.00;1.00;;;;;;7358161;19;20020;-58
2022/02/14 07:08:51;;;;;;;5.60;2.90;;;4.90;1.00;;;;;;7364055;19;20014;-60
2022/02/14 07:11:26;;;;;;;8.85;3.85;;;5.00;1.00;;;;;;7380954;19;20007;-59
2022/02/14 07:13:59;;;;;;;6.75;4.00;;;5.00;1.00;;;;;;7361380;19;20090;-59
2022/02/14 07:16:28;;;;;;;7.10;2.90;;;5.00;1.00;;;;;;7359695;19;20015;-59
2022/02/14 07:18:58;;;;;;;9.90;3.20;;;5.20;1.00;;;;;;7363329;19;20010;-60
2022/02/14 07:21:28;;;;;;;7.35;3.25;;;5.20;1.00;;;;;;7357453;19;20577;-58
2022/02/14 07:23:58;;;;;;;10.32;3.38;;;5.30;1.00;;;;;;7363630;19;20062;-59
2022/02/14 07:26:28;;;;;;;7.38;3.20;;;5.50;1.00;;;;;;7377919;19;20014;-59
2022/02/14 07:29:00;;;;;;;7.35;3.72;;;5.40;1.00;;;;;;7360555;19;20019;-59
2022/02/14 07:31:30;;;;;;;12.27;3.65;;;5.40;1.00;;;;;;7359379;19;20017;-58
2022/02/14 07:34:00;;;;;;;4.93;2.70;;;5.60;1.00;;;;;;7360526;19;20375;-58
2022/02/14 07:36:33;;;;;;;4.85;2.72;;;5.70;1.00;;;;;;7356313;19;20493;-58
2022/02/14 07:39:02;;;;;;;5.70;2.83;;;5.70;1.00;;;;;;7361821;19;20022;-60
2022/02/14 07:41:36;;;;;;;11.80;3.30;;;6.00;1.00;;;;;;7378641;19;20466;-59
2022/02/14 07:44:08;;;;;;;4.78;2.38;;;6.10;1.00;;;;;;7360730;19;20078;-59
2022/02/14 07:46:38;;;;;;;11.70;3.67;;;6.20;1.00;;;;;;7357814;19;20018;-59
2022/02/14 07:49:08;;;;;;;6.78;2.58;;;6.10;1.00;;;;;;7360350;19;20011;-59
2022/02/14 07:51:38;;;;;;;4.25;2.50;;;6.10;1.00;;;;;;7356327;19;20124;-59
2022/02/14 07:54:08;;;;;;;6.45;2.80;;;6.20;1.00;;;;;;7363167;19;20770;-59
2022/02/14 07:56:38;;;;;;;9.95;3.05;;;6.30;1.00;;;;;;7378657;19;20014;-59
2022/02/14 07:59:11;;;;;;;6.68;2.85;;;6.30;1.00;;;;;;7365145;19;20562;-59
2022/02/14 08:01:41;;;;;;;8.70;2.63;;;6.50;1.00;;;;;;7366729;19;20485;-59
2022/02/14 08:04:14;;;;;;;7.57;2.97;;;6.50;1.00;;;;;;7368642;19;20082;-60
2022/02/14 08:06:44;;;;;;;6.32;2.80;;;6.70;1.00;;;;;;7363413;19;20022;-58
2022/02/14 08:09:16;;;;;;;6.22;3.20;;;6.80;1.00;;;;;;7367928;19;20002;-59
2022/02/14 08:11:46;;;;;;;10.00;3.13;;;6.90;1.00;;;;;;7364237;19;20014;-59
2022/02/14 08:14:18;;;;;;;7.65;3.30;;;6.90;1.00;;;;;;7388999;19;20400;-59
2022/02/14 08:16:49;;;;;;;6.28;2.97;;;6.90;1.00;;;;;;7365151;19;20509;-60
2022/02/14 08:19:19;;;;;;;11.82;2.78;;;7.00;1.00;;;;;;7368446;19;20016;-60
2022/02/14 08:21:48;;;;;;;10.57;3.25;;;7.00;1.00;;;;;;7364213;19;20018;-60
2022/02/14 08:24:18;;;;;;;11.48;3.47;;;7.10;1.00;;;;;;7368848;19;20007;-59
2022/02/14 08:26:49;;;;;;;6.97;3.08;;;7.10;1.00;;;;;;7361519;19;20082;-59
2022/02/14 08:29:21;;;;;;;6.45;3.33;;;7.20;1.00;;;;;;7388270;19;20014;-59
2022/02/14 08:31:51;;;;;;;6.40;2.95;;;7.30;1.00;;;;;;7366161;19;20073;-60
2022/02/14 08:34:21;;;;;;;6.45;3.15;;;7.40;1.00;;;;;;7367378;19;20010;-59
2022/02/14 08:36:51;;;;;;;6.55;3.00;;;7.50;1.00;;;;;;7360989;19;20002;-59
2022/02/14 08:39:21;;;;;;;8.05;3.17;;;7.60;1.00;;;;;;7368435;19;20024;-59
2022/02/14 08:41:50;;;;;;;8.23;2.83;;;7.70;1.00;;;;;;7363391;19;20081;-59
2022/02/14 08:44:23;;;;;;;7.93;3.53;;;7.60;1.00;;;;;;7386964;19;20010;-59
2022/02/14 08:46:53;;;;;;;8.50;4.28;;;7.70;1.00;;;;;;7365123;19;20002;-59
2022/02/14 08:49:24;;;;;;;7.45;2.83;;;7.80;1.00;;;;;;7366995;19;20088;-59
2022/02/14 08:51:54;;;;;;;6.65;3.70;;;7.90;1.00;;;;;;7362302;19;20018;-58
2022/02/14 08:54:24;;;;;;;9.35;3.13;;;8.00;1.00;;;;;;7368462;19;20061;-59
2022/02/14 08:56:56;;;;;;;5.95;3.15;;;8.10;1.00;;;;;;7362768;19;20465;-59
2022/02/14 08:59:28;;;;;;;10.63;2.75;;;8.30;1.00;;;;;;7385816;19;20022;-59
2022/02/14 09:02:01;;;;;;;6.15;3.00;;;8.40;1.00;;;;;;7365540;19;20010;-59
2022/02/14 09:04:31;;;;;;;11.20;2.83;;;8.60;1.00;;;;;;7366904;19;20365;-59
2022/02/14 09:07:01;;;;;;;5.30;2.88;;;8.60;1.00;;;;;;7363355;19;20006;-59
2022/02/14 09:09:32;;;;;;;8.52;3.20;;;8.50;1.00;;;;;;7366527;19;20031;-60
2022/02/14 09:12:02;;;;;;;8.73;2.67;;;8.60;1.00;;;;;;7361189;19;20026;-60
2022/02/14 09:14:35;;;;;;;9.77;5.50;;;8.80;1.00;;;;;;7387089;19;20014;-60
2022/02/14 09:17:05;;;;;;;10.32;3.40;;;8.90;1.00;;;;;;7365760;19;20025;-60
2022/02/14 09:19:35;;;;;;;5.53;2.97;;;9.10;1.00;;;;;;7365638;19;20462;-61
2022/02/14 09:22:06;;;;;;;9.10;3.00;;;9.30;1.00;;;;;;7361925;19;20011;-60
2022/02/14 09:24:36;;;;;;;7.72;2.83;;;9.20;1.00;;;;;;7366528;19;20081;-60
2022/02/14 09:27:06;;;;;;;6.05;3.25;;;9.30;1.00;;;;;;7362642;19;20010;-60
2022/02/14 09:29:39;;;;;;;12.00;3.83;;;9.30;1.00;;;;;;7385155;19;20014;-60
2022/02/14 09:32:09;;;;;;;13.77;4.38;;;9.30;1.00;;;;;;7361855;19;20018;-60
2022/02/14 09:34:39;;;;;;;13.63;3.40;;;9.30;1.00;;;;;;7363824;19;20030;-59
2022/02/14 09:37:10;;;;;;;7.40;3.72;;;9.30;1.00;;;;;;7362860;19;20109;-59
2022/02/14 09:39:41;;;;;;;13.93;3.70;;;9.30;1.00;;;;;;7364700;19;20077;-59
2022/02/14 09:42:11;;;;;;;11.65;4.00;;;9.40;1.00;;;;;;7360582;19;20086;-59
2022/02/14 09:44:45;;;;;;;11.70;4.97;;;9.40;1.00;;;;;;7366495;19;20043;-60
2022/02/14 09:47:15;;;;;;;11.27;3.63;;;9.50;1.00;;;;;;7385425;19;20011;-60
2022/02/14 09:49:46;;;;;;;7.40;3.40;;;9.60;1.00;;;;;;7364407;19;20018;-59
2022/02/14 09:52:15;;;;;;;13.10;3.60;;;9.60;1.00;;;;;;7360180;19;20007;-59
2022/02/14 09:54:45;;;;;;;8.68;3.50;;;9.70;1.00;;;;;;7363870;19;20010;-59
2022/02/14 09:57:17;;;;;;;10.27;3.75;;;9.80;1.00;;;;;;7362547;19;20014;-59
2022/02/14 09:59:51;;;;;;;13.68;3.65;;;9.80;1.00;;;;;;7363212;19;20010;-59
2022/02/14 10:02:24;;;;;;;8.88;3.50;;;9.90;1.00;;;;;;7380381;19;20074;-60
2022/02/14 10:05:12;;;;;;;18.25;4.05;;;9.90;1.00;;;;;;7360637;19;20010;-60
2022/02/14 10:07:44;;;;;;;7.72;2.95;;;9.90;1.00;;;;;;7361153;19;20090;-61
2022/02/14 10:10:18;;;;;;;10.73;3.35;;;9.90;1.00;;;;;;7363669;19;21940;-59
2022/02/14 10:12:49;;;;;;;9.48;4.30;;;9.90;1.00;;;;;;7360113;19;20063;-60
2022/02/14 10:15:22;;;;;;;8.43;3.17;;;9.90;1.00;;;;;;7356272;19;20464;-60
2022/02/14 10:17:54;;;;;;;9.30;3.00;;;9.90;1.00;;;;;;7362582;19;20486;-60
2022/02/14 10:20:27;;;;;;;10.15;3.50;;;9.90;1.00;;;;;;7382723;19;20018;-60
2022/02/14 10:23:02;;;;;;;10.13;3.33;;;9.90;1.00;;;;;;7357161;19;20088;-60
2022/02/14 10:25:38;;;;;;;13.45;3.28;;;10.00;1.00;;;;;;7357771;19;20010;-60
2022/02/14 10:28:18;;;;;;;9.55;3.88;;;10.10;1.00;;;;;;7362785;19;20507;-61
2022/02/14 10:31:06;;;;;;;11.73;3.83;;;10.10;1.00;;;;;;7361510;19;20057;-60
2022/02/14 10:33:51;;;;;;;12.82;4.47;;;10.10;1.00;;;;;;7361838;19;20021;-60
2022/02/14 10:36:30;;;;;;;8.43;3.33;;;10.20;1.00;;;;;;7358787;19;20435;-60
2022/02/14 10:39:07;;;;;;;11.25;3.83;;;10.30;1.00;;;;;;7362802;19;20019;-59
2022/02/14 10:41:37;;;;;;;9.73;3.55;;;10.50;1.00;;;;;;7378917;19;20027;-60
2022/02/14 10:45:07;;;;;;;10.27;3.10;;;10.50;1.00;;;;;;7362579;19;20019;-60
2022/02/14 10:47:15;;;;;;;12.25;3.38;;;10.70;1.00;;;;;;7360838;19;20089;-59
2022/02/14 10:49:45;;;;;;;14.10;3.28;;;10.80;1.00;;;;;;7360143;19;20015;-60
2022/02/14 10:52:16;;;;;;;6.05;2.58;;;10.90;1.00;;;;;;7357893;19;20408;-60
2022/02/14 10:54:47;;;;;;;7.10;2.90;;;11.20;1.00;;;;;;7360588;19;20486;-59
2022/02/14 10:57:28;;;;;;;8.80;3.10;;;11.30;1.00;;;;;;7360410;19;20027;-60
2022/02/14 11:00:02;;;;;;;13.00;2.72;;;11.40;1.00;;;;;;7361564;19;20025;-59
2022/02/14 11:02:35;;;;;;;6.80;2.50;;;11.50;1.00;;;;;;7382778;19;20024;-59
2022/02/14 11:05:06;;;;;;;13.55;6.55;;;11.80;1.00;;;;;;7356575;19;20011;-60
2022/02/14 11:07:38;;;;;;;7.63;2.42;;;12.00;1.00;;;;;;7360444;19;20010;-60
2022/02/14 11:10:12;;;;;;;8.50;2.83;;;12.30;1.00;;;;;;7362503;19;20021;-60
2022/02/14 11:12:44;;;;;;;8.00;1.92;;;12.40;1.00;;;;;;7357894;19;20041;-59
2022/02/14 11:15:14;;;;;;;4.97;2.20;;;12.40;1.00;;;;;;7356172;19;20002;-59
2022/02/14 11:17:49;;;;;;;5.55;2.30;;;12.30;1.00;;;;;;7362105;19;20007;-59
2022/02/14 11:20:19;;;;;;;8.77;2.00;;;12.40;1.00;;;;;;7382051;19;20085;-59
2022/02/14 11:22:51;;;;;;;5.75;2.38;;;12.40;1.00;;;;;;7356732;19;20080;-60
2022/02/14 11:25:29;;;;;;;5.80;1.98;;;12.20;1.00;;;;;;7356357;19;20316;-60
2022/02/14 11:28:04;;;;;;;2.90;1.85;;;12.20;1.00;;;;;;7359282;19;20050;-60
2022/02/14 11:30:33;;;;;;;;;;;12.30;1.00;;;;;;7356930;19;20046;-60
2022/02/14 11:33:19;;;;;;;7.63;2.05;;;12.30;1.00;;;;;;7362440;19;19915;-59
2022/02/14 11:36:00;;;;;;;4.40;2.00;;;12.30;1.00;;;;;;7364670;19;20024;-60
2022/02/14 11:38:45;;;;;;;8.90;3.10;;;12.30;1.00;;;;;;7386238;19;20679;-59
2022/02/14 11:41:31;;;;;;;5.18;2.20;;;12.40;1.00;;;;;;7363243;19;20539;-61
2022/02/14 11:44:22;;;;;;;6.03;1.85;;;12.50;1.00;;;;;;7369848;19;20428;-59
2022/02/14 11:47:11;;;;;;;4.45;1.77;;;12.60;1.00;;;;;;7363741;19;20014;-60
2022/02/14 11:49:45;;;;;;;6.15;1.63;;;12.50;1.00;;;;;;7364994;19;20018;-59
2022/02/14 11:52:34;;;;;;;5.95;1.80;;;12.50;1.00;;;;;;7364760;19;20127;-60
2022/02/14 11:55:08;;;;;;;4.15;1.50;;;12.50;1.00;;;;;;7366521;19;20527;-60
2022/02/14 11:57:45;;;;;;;2.58;1.58;;;12.50;1.00;;;;;;7365489;19;20317;-60
2022/02/14 12:00:27;;;;;;;5.97;2.60;;;12.60;1.00;;;;;;7366380;19;20011;-60
2022/02/14 12:02:59;;;;;;;8.40;2.10;;;12.70;1.00;;;;;;7365542;19;20018;-60
2022/02/14 12:05:47;;;;;;;5.55;2.50;;;12.70;1.00;;;;;;7378714;19;20353;-60
2022/02/14 12:08:18;;;;;;;6.97;2.65;;;12.60;1.00;;;;;;7363583;19;20328;-59
2022/02/14 12:10:53;;;;;;;5.55;2.28;;;12.50;1.00;;;;;;7366818;19;20034;-60
2022/02/14 12:13:25;;;;;;;4.95;1.90;;;12.50;1.00;;;;;;7368464;19;20454;-59
2022/02/14 12:21:29;;;;;;;6.03;1.67;;;12.30;1.00;;;;;;7367852;19;20010;-60
2022/02/14 12:24:19;;;;;;;4.07;2.20;;;12.40;1.00;;;;;;7368639;19;20006;-60
2022/02/14 12:26:50;;;;;;;;;;;12.40;1.00;;;;;;7361494;19;20074;-60
2022/02/14 12:29:35;;;;;;;3.17;1.90;;;12.40;1.00;;;;;;7389557;19;19921;-61
2022/02/14 12:32:14;;;;;;;6.47;1.80;;;12.30;1.00;;;;;;7363809;19;20487;-60
2022/02/14 12:34:46;;;;;;;5.80;1.55;;;12.30;1.00;;;;;;7363212;19;20018;-60
2022/02/14 12:37:21;;;;;;;6.47;2.08;;;12.40;1.00;;;;;;7364410;19;20003;-61
2022/02/14 12:39:53;;;;;;;4.25;1.65;;;12.40;1.00;;;;;;7366712;19;20367;-59
2022/02/14 12:42:26;;;;;;;4.30;1.65;;;12.40;1.00;;;;;;7363240;19;20039;-60
2022/02/14 12:44:58;;;;;;;5.57;1.90;;;12.40;1.00;;;;;;7365195;19;20105;-59
2022/02/14 12:47:29;;;;;;;6.57;1.83;;;12.30;1.00;;;;;;7385493;19;20043;-59
2022/02/14 12:50:05;;;;;;;3.88;1.58;;;12.50;1.00;;;;;;7364103;19;20015;-61
2022/02/14 12:52:38;;;;;;;3.92;1.50;;;12.50;1.00;;;;;;7362820;19;20522;-59
2022/02/14 12:55:09;;;;;;;3.92;1.50;;;12.50;1.00;;;;;;7366352;19;20011;-60
2022/02/14 12:57:42;;;;;;;5.38;2.30;;;12.50;1.00;;;;;;7365050;19;20011;-60
2022/02/14 13:00:29;;;;;;;4.00;2.20;;;12.60;1.00;;;;;;7366993;19;20020;-60
2022/02/14 13:03:01;;;;;;;5.82;1.70;;;12.70;1.00;;;;;;7364868;19;20458;-60
2022/02/14 13:05:32;;;;;;;4.75;1.60;;;12.80;1.00;;;;;;7382019;19;20018;-60
2022/02/14 13:08:18;;;;;;;4.55;2.03;;;12.80;1.00;;;;;;7364769;19;20130;-60
2022/02/14 13:10:50;;;;;;;6.05;1.90;;;12.80;1.00;;;;;;7367695;19;20002;-61
2022/02/14 13:13:33;;;;;;;5.30;1.90;;;12.70;1.00;;;;;;7365297;19;20002;-60
2022/02/14 13:16:07;;;;;;;4.47;1.90;;;12.60;1.00;;;;;;7359502;19;20463;-61
2022/02/14 13:18:42;;;;;;;3.38;1.38;;;12.50;1.00;;;;;;7365369;19;20011;-60
2022/02/14 13:21:12;;;;;;;;;;;12.30;1.00;;;;;;7366377;19;20094;-60
2022/02/14 13:23:44;;;;;;;4.03;1.70;;;12.30;1.00;;;;;;7369370;19;19998;-60
2022/02/14 13:26:22;;;;;;;4.70;1.83;;;12.20;1.00;;;;;;7382161;19;20013;-60
2022/02/14 13:28:53;;;;;;;5.22;1.52;;;12.20;1.00;;;;;;7366129;19;20081;-60
2022/02/14 13:31:24;;;;;;;7.25;2.00;;;12.10;1.00;;;;;;7358333;19;20027;-60
2022/02/14 13:33:57;;;;;;;4.25;1.73;;;12.10;1.00;;;;;;7365595;19;20006;-60
2022/02/14 13:36:27;;;;;;;3.13;1.55;;;12.20;1.00;;;;;;7362560;19;20037;-60
2022/02/14 13:39:00;;;;;;;4.82;1.60;;;12.20;1.00;;;;;;7363718;19;20487;-60